Time;durP1;ratioP1;P1;durP2;ratioP2;P2;SDS_P1;SDS_P2;PMS_P1;PMS_P2;Temp;Humidity;BMP_temperature;BMP_pressure;BME280_temperature;BME280_humidity;BME280_pressure;Samples;Min_cycle;Max_cycle;Signal;HPM_P1;HPM_P2
2022/09/04 00:01:51;;;;;;;9.20;8.18;;;;;;;19.68;76.07;99663.09;5013186;28;20044;-74
2022/09/04 00:04:43;;;;;;;10.60;9.10;;;;;;;19.60;76.04;99657.38;5034019;28;20577;-73
2022/09/04 00:07:27;;;;;;;11.55;9.48;;;;;;;19.57;76.35;99675.19;5017175;28;20045;-74
2022/09/04 00:10:15;;;;;;;8.90;8.00;;;;;;;19.55;76.65;99683.28;5033420;28;20033;-74
2022/09/04 00:12:56;;;;;;;11.23;9.45;;;;;;;19.53;76.91;99679.19;5032784;28;20511;-74
2022/09/04 00:15:35;;;;;;;10.00;9.00;;;;;;;19.39;77.08;99675.00;5034380;28;20034;-73
2022/09/04 00:18:24;;;;;;;10.52;8.50;;;;;;;19.28;77.75;99677.75;5016072;28;20036;-74
2022/09/04 00:20:56;;;;;;;10.77;8.27;;;;;;;19.35;77.58;99679.84;5034747;28;20040;-74
2022/09/04 00:23:31;;;;;;;9.35;8.45;;;;;;;19.30;77.89;99685.84;5013521;28;20117;-74
2022/09/04 00:26:09;;;;;;;9.10;8.18;;;;;;;19.30;78.12;99688.69;5014754;28;20026;-73
2022/09/04 00:28:48;;;;;;;11.43;9.13;;;;;;;19.15;78.31;99694.22;5013437;28;20124;-73
2022/09/04 00:31:35;;;;;;;9.80;7.72;;;;;;;19.14;78.98;99695.41;5023217;28;20420;-74
2022/09/04 00:34:28;;;;;;;12.50;8.98;;;;;;;19.10;79.29;99703.09;5015568;28;20037;-74
2022/09/04 00:37:00;;;;;;;11.15;8.75;;;;;;;19.05;79.67;99704.25;5034417;28;20480;-74
2022/09/04 00:39:38;;;;;;;9.23;8.02;;;;;;;19.08;79.18;99703.47;5034205;28;20026;-74
2022/09/04 00:42:03;;;;;;;10.73;8.48;;;;;;;19.08;79.15;99705.50;5032877;28;20057;-73
2022/09/04 00:45:10;;;;;;;8.88;7.97;;;;;;;18.87;80.08;99701.16;5016177;28;20037;-74
2022/09/04 00:47:58;;;;;;;10.38;8.57;;;;;;;18.82;80.11;99704.31;5000445;28;20435;-74
2022/09/04 00:50:51;;;;;;;10.85;8.68;;;;;;;18.69;80.91;99711.44;5034372;28;20025;-73
2022/09/04 00:53:38;;;;;;;9.40;8.30;;;;;;;18.60;81.34;99709.75;5015004;28;20120;-74
2022/09/04 00:56:14;;;;;;;9.65;7.65;;;;;;;18.58;81.25;99708.47;5034049;28;20022;-74
2022/09/04 00:59:30;;;;;;;10.30;8.75;;;;;;;18.45;82.03;99707.88;5033949;28;20487;-73
2022/09/04 01:02:11;;;;;;;10.80;8.63;;;;;;;18.37;82.47;99709.81;4988095;28;20041;-74
2022/09/04 01:04:48;;;;;;;8.63;7.60;;;;;;;18.35;82.46;99704.53;5015960;28;20037;-74
2022/09/04 01:07:36;;;;;;;9.82;8.50;;;;;;;18.28;82.56;99712.94;5015943;28;20384;-73
2022/09/04 01:10:37;;;;;;;11.02;8.60;;;;;;;18.15;83.13;99723.63;5033591;28;20021;-74
2022/09/04 01:13:11;;;;;;;10.48;8.57;;;;;;;17.93;83.80;99722.47;5030712;28;20488;-75
2022/09/04 01:15:56;;;;;;;11.23;9.15;;;;;;;17.94;84.02;99718.44;5014529;28;20506;-73
2022/09/04 01:19:05;;;;;;;12.52;8.90;;;;;;;17.75;84.76;99713.69;5032172;28;20121;-73
2022/09/04 01:21:32;;;;;;;10.95;9.18;;;;;;;17.82;84.84;99717.44;4994596;28;20076;-74
2022/09/04 01:24:15;;;;;;;12.50;10.00;;;;;;;17.75;84.97;99723.00;5033485;28;20037;-74
2022/09/04 01:27:06;;;;;;;13.02;9.38;;;;;;;17.67;85.03;99726.88;5015553;28;20037;-73
2022/09/04 01:29:59;;;;;;;9.52;8.07;;;;;;;17.59;85.29;99723.13;5021508;28;20033;-74
2022/09/04 01:33:03;;;;;;;17.17;9.63;;;;;;;17.46;85.65;99727.31;5032617;28;20029;-74
2022/09/04 01:36:00;;;;;;;9.80;8.48;;;;;;;17.38;86.44;99724.34;5033325;28;20017;-74
2022/09/04 01:38:42;;;;;;;15.60;9.02;;;;;;;17.40;85.88;99726.81;5026513;28;20072;-74
2022/09/04 01:41:38;;;;;;;10.90;9.18;;;;;;;17.22;86.39;99726.47;5030713;28;20120;-73
2022/09/04 01:44:09;;;;;;;12.05;8.93;;;;;;;17.06;87.20;99727.38;4992012;28;20038;-73
2022/09/04 01:46:46;;;;;;;11.82;8.98;;;;;;;16.97;87.76;99729.59;4993720;28;20460;-74
2022/09/04 01:49:29;;;;;;;14.15;10.15;;;;;;;16.93;88.00;99723.88;4993521;28;20084;-74
2022/09/04 01:52:07;;;;;;;8.88;7.97;;;;;;;17.01;87.47;99735.31;4993178;28;20030;-74
2022/09/04 01:54:55;;;;;;;12.65;8.48;;;;;;;16.91;87.54;99729.06;4991781;28;20097;-74
2022/09/04 01:57:45;;;;;;;11.38;8.35;;;;;;;16.80;88.05;99733.69;4992233;28;20493;-73
2022/09/04 02:00:22;;;;;;;12.15;9.15;;;;;;;16.78;88.22;99728.41;4992710;28;20482;-73
2022/09/04 02:03:09;;;;;;;9.95;8.30;;;;;;;17.13;87.62;99746.47;4990075;28;20042;-73
2022/09/04 02:05:44;;;;;;;13.68;8.27;;;;;;;17.12;86.51;99750.50;4991577;28;20037;-73
2022/09/04 02:08:24;;;;;;;11.38;7.70;;;;;;;17.31;85.72;99749.66;4992012;28;20034;-74
2022/09/04 02:11:02;;;;;;;;;;;;;;;17.38;84.90;99749.78;4992319;28;20034;-73
2022/09/04 02:14:07;;;;;;;10.55;8.27;;;;;;;17.40;84.72;99758.72;4991961;28;19964;-73
2022/09/04 02:17:02;;;;;;;9.75;8.50;;;;;;;17.44;84.28;99747.47;4993169;28;20061;-73
2022/09/04 02:19:52;;;;;;;14.93;8.48;;;;;;;17.56;83.65;99751.31;5002798;28;20128;-73
2022/09/04 02:22:40;;;;;;;14.20;7.30;;;;;;;17.82;82.23;99744.94;4980687;28;20034;-73
2022/09/04 02:25:15;;;;;;;8.55;7.65;;;;;;;17.86;81.77;99744.97;4992435;28;20026;-73
2022/09/04 02:27:43;;;;;;;25.33;9.23;;;;;;;17.73;81.97;99756.47;4992901;28;20038;-73
2022/09/04 02:30:14;;;;;;;8.43;7.35;;;;;;;17.52;82.52;99743.59;4992151;28;20042;-73
2022/09/04 02:32:46;;;;;;;10.82;8.52;;;;;;;17.23;84.42;99737.38;4990993;28;20452;-74
2022/09/04 02:35:38;;;;;;;13.60;8.65;;;;;;;17.04;84.95;99743.88;4991807;28;20038;-74
2022/09/04 02:38:21;;;;;;;15.43;8.57;;;;;;;17.00;85.80;99745.00;4992714;28;20485;-73
2022/09/04 02:41:05;;;;;;;20.55;8.32;;;;;;;17.11;85.02;99743.22;4991895;28;20494;-73
2022/09/04 02:43:56;;;;;;;14.25;8.77;;;;;;;16.82;85.83;99751.06;5023238;28;20055;-73
2022/09/04 02:46:56;;;;;;;13.38;8.52;;;;;;;16.81;86.13;99744.59;5000701;28;20561;-74
2022/09/04 02:49:48;;;;;;;10.40;8.00;;;;;;;16.89;85.62;99734.25;5031795;28;20037;-73
2022/09/04 02:52:32;;;;;;;11.80;8.70;;;;;;;16.93;85.13;99737.16;5031350;28;20045;-73
2022/09/04 02:55:43;;;;;;;10.20;8.43;;;;;;;16.82;85.33;99732.09;5031205;28;21631;-73
2022/09/04 02:58:33;;;;;;;10.45;8.20;;;;;;;16.76;86.05;99736.44;5018030;28;20029;-74
2022/09/04 03:01:10;;;;;;;13.15;8.50;;;;;;;16.86;85.39;99740.66;5030635;28;20026;-73
2022/09/04 03:04:11;;;;;;;11.82;8.95;;;;;;;16.88;84.67;99735.44;5030916;28;20037;-74
2022/09/04 03:07:03;;;;;;;11.20;7.18;;;;;;;16.93;84.41;99726.69;5001367;28;20124;-73
2022/09/04 03:09:38;;;;;;;10.43;8.70;;;;;;;16.83;84.70;99725.28;5028938;28;20516;-74
2022/09/04 03:12:30;;;;;;;12.52;8.40;;;;;;;16.69;85.79;99733.44;5020004;28;20558;-74
2022/09/04 03:15:53;;;;;;;13.23;9.23;;;;;;;16.52;86.53;99732.69;5010713;28;20044;-74
2022/09/04 03:18:22;;;;;;;18.10;9.57;;;;;;;16.57;86.72;99725.94;4915827;29;20051;-75
2022/09/04 03:20:56;;;;;;;11.95;9.27;;;;;;;16.35;87.49;99716.97;4917723;29;20024;-74
2022/09/04 03:23:40;;;;;;;12.05;9.13;;;;;;;16.67;86.69;99738.63;5004008;28;20041;-73
2022/09/04 03:26:13;;;;;;;14.32;9.43;;;;;;;16.90;85.52;99741.56;5030713;28;20029;-74
2022/09/04 03:29:00;;;;;;;13.23;8.52;;;;;;;17.08;83.80;99743.97;5027575;28;20025;-74
2022/09/04 03:31:37;;;;;;;12.52;9.35;;;;;;;17.01;83.32;99733.34;5009858;28;20111;-74
2022/09/04 03:34:25;;;;;;;9.68;8.55;;;;;;;17.04;82.77;99738.22;5011482;28;20091;-73
2022/09/04 03:37:06;;;;;;;13.20;8.02;;;;;;;17.23;81.79;99751.53;5011580;28;20485;-75
2022/09/04 03:39:40;;;;;;;18.33;8.75;;;;;;;17.37;80.82;99753.81;5027141;28;20034;-73
2022/09/04 03:42:41;;;;;;;11.85;8.27;;;;;;;17.09;81.47;99766.22;5008313;28;20045;-76
2022/09/04 03:45:09;;;;;;;29.80;9.10;;;;;;;16.98;81.87;99763.09;5030955;28;20018;-80
2022/09/04 03:48:00;;;;;;;16.52;8.63;;;;;;;16.88;82.50;99775.00;5012429;28;20029;-77
2022/09/04 03:50:38;;;;;;;11.73;8.48;;;;;;;16.64;84.03;99768.44;5028919;28;20472;-73
2022/09/04 03:53:21;;;;;;;21.35;8.50;;;;;;;16.45;85.57;99780.50;5029880;28;20128;-73
2022/09/04 03:56:05;;;;;;;14.77;9.07;;;;;;;16.21;86.91;99779.53;5011848;28;20033;-73
2022/09/04 03:58:58;;;;;;;15.23;9.80;;;;;;;16.16;87.43;99776.19;5011678;28;20026;-73
2022/09/04 04:01:36;;;;;;;12.40;8.80;;;;;;;16.02;87.70;99788.75;4996527;28;20496;-73
2022/09/04 04:04:34;;;;;;;11.82;8.88;;;;;;;15.89;88.30;99790.84;5013814;28;20021;-72
2022/09/04 04:07:20;;;;;;;13.02;9.73;;;;;;;15.73;89.12;99797.25;5027232;28;20044;-73
2022/09/04 04:10:02;;;;;;;13.80;10.05;;;;;;;15.49;90.18;99798.25;5031402;28;20542;-73
2022/09/04 04:13:09;;;;;;;20.48;10.52;;;;;;;15.41;90.55;99794.41;5031636;28;20135;-73
2022/09/04 04:16:02;;;;;;;15.38;9.70;;;;;;;15.63;90.22;99811.91;4933700;29;20046;-71
2022/09/04 04:18:55;;;;;;;19.02;10.20;;;;;;;15.70;89.56;99809.28;5010201;28;20069;-73
2022/09/04 04:21:49;;;;;;;13.75;10.13;;;;;;;15.56;89.79;99812.50;5010804;28;20436;-72
2022/09/04 04:24:20;;;;;;;15.68;9.20;;;;;;;15.41;90.17;99816.13;5029954;28;20022;-74
2022/09/04 04:27:02;;;;;;;19.30;10.25;;;;;;;15.37;90.20;99809.56;5023855;28;20489;-82
2022/09/04 04:29:43;;;;;;;15.00;10.55;;;;;;;15.33;90.97;99814.31;5010207;28;20030;-78
2022/09/04 04:32:31;;;;;;;21.05;10.15;;;;;;;15.40;90.25;99815.31;5021431;28;20029;-74
2022/09/04 04:34:57;;;;;;;15.20;9.98;;;;;;;15.60;90.25;99823.91;5027665;28;20025;-74
2022/09/04 04:37:52;;;;;;;13.27;9.98;;;;;;;15.61;89.75;99833.19;5013411;28;20033;-74
2022/09/04 04:40:50;;;;;;;18.02;11.02;;;;;;;15.60;89.78;99831.56;5019729;28;20408;-74
2022/09/04 04:43:23;;;;;;;18.70;10.15;;;;;;;15.36;91.14;99830.47;5029173;28;20132;-74
2022/09/04 04:45:54;;;;;;;19.42;11.27;;;;;;;15.34;91.69;99839.28;5030298;28;20500;-73
2022/09/04 04:48:49;;;;;;;18.77;10.85;;;;;;;15.36;91.47;99842.56;5033969;28;20037;-73
2022/09/04 04:51:31;;;;;;;21.92;11.45;;;;;;;15.36;91.05;99838.94;5016273;28;20040;-73
2022/09/04 04:54:27;;;;;;;39.60;16.05;;;;;;;15.56;90.78;99846.34;5033965;28;20025;-73
2022/09/04 04:57:02;;;;;;;38.13;23.30;;;;;;;15.54;90.60;99854.34;5032916;28;20033;-74
2022/09/04 04:59:47;;;;;;;41.47;26.08;;;;;;;15.56;90.89;99856.81;5033324;28;20120;-73
2022/09/04 05:02:29;;;;;;;30.58;22.05;;;;;;;15.57;91.02;99862.09;5033884;28;20037;-74
2022/09/04 05:05:12;;;;;;;19.95;13.80;;;;;;;15.60;91.67;99857.72;5032619;28;20026;-73
2022/09/04 05:07:59;;;;;;;24.98;11.80;;;;;;;15.76;90.90;99869.03;5033516;28;20029;-73
2022/09/04 05:10:59;;;;;;;15.30;10.98;;;;;;;15.80;91.52;99878.41;5033246;28;20029;-74
2022/09/04 05:14:09;;;;;;;17.83;11.00;;;;;;;15.83;92.19;99890.97;5005949;28;20110;-74
2022/09/04 05:17:15;;;;;;;18.00;11.07;;;;;;;15.94;92.64;99880.03;5011902;28;20052;-73
2022/09/04 05:20:03;;;;;;;21.05;11.57;;;;;;;16.06;94.06;99888.44;4919061;29;20066;-73
2022/09/04 05:22:35;;;;;;;16.35;11.57;;;;;;;16.27;93.25;99885.34;5025304;28;20045;-74
2022/09/04 05:25:12;;;;;;;17.65;11.75;;;;;;;16.53;92.67;99894.41;5032780;28;20037;-74
2022/09/04 05:28:01;;;;;;;19.35;12.82;;;;;;;16.77;91.09;99898.22;5032663;28;20030;-74
2022/09/04 05:30:51;;;;;;;17.33;11.77;;;;;;;16.97;90.08;99894.28;5003442;28;20037;-74
2022/09/04 05:33:38;;;;;;;16.65;11.23;;;;;;;17.21;89.02;99905.75;5032120;28;20546;-74
2022/09/04 05:36:36;;;;;;;18.23;11.98;;;;;;;17.21;88.28;99911.38;4995819;28;20124;-74
2022/09/04 05:39:23;;;;;;;17.25;12.30;;;;;;;17.12;87.51;99905.91;5024343;28;20045;-74
2022/09/04 05:41:56;;;;;;;17.25;12.40;;;;;;;17.28;87.08;99890.94;5031394;28;20033;-74
2022/09/04 05:44:52;;;;;;;23.27;12.32;;;;;;;17.42;87.03;99901.72;5006792;28;20099;-74
2022/09/04 05:47:35;;;;;;;20.58;11.60;;;;;;;17.59;86.07;99906.94;4995677;28;20036;-73
2022/09/04 05:50:20;;;;;;;14.18;10.60;;;;;;;17.87;84.47;99905.06;5031809;28;20037;-73
2022/09/04 05:52:58;;;;;;;20.92;10.63;;;;;;;17.96;83.99;99909.28;5032875;28;20083;-73
2022/09/04 05:55:49;;;;;;;14.27;10.27;;;;;;;18.22;83.23;99921.09;5033076;28;20439;-73
2022/09/04 05:58:47;;;;;;;16.90;11.52;;;;;;;18.37;82.20;99908.84;5013506;28;20033;-76
2022/09/04 06:01:31;;;;;;;13.40;10.25;;;;;;;18.28;81.93;99893.28;4998134;28;20072;-74
2022/09/04 06:04:17;;;;;;;15.82;11.07;;;;;;;18.54;80.85;99909.53;5022838;28;20029;-74
2022/09/04 06:07:01;;;;;;;13.82;10.45;;;;;;;18.78;80.44;99908.31;5014942;28;20025;-73
2022/09/04 06:09:41;;;;;;;15.93;11.98;;;;;;;18.78;80.19;99896.97;5013532;28;20029;-73
2022/09/04 06:12:07;;;;;;;;;;;;;;;18.93;79.46;99903.66;5033228;28;20504;-73
2022/09/04 06:15:18;;;;;;;14.38;11.68;;;;;;;18.97;79.00;99891.56;5032628;28;19933;-74
2022/09/04 06:18:16;;;;;;;18.30;12.00;;;;;;;18.61;79.50;99901.16;4999579;28;20049;-75
2022/09/04 06:20:53;;;;;;;18.17;12.00;;;;;;;18.66;80.22;99900.00;5014689;28;20543;-78
2022/09/04 06:23:59;;;;;;;18.50;11.38;;;;;;;18.43;81.18;99897.19;5010481;28;20427;-76
2022/09/04 06:26:46;;;;;;;21.20;14.32;;;;;;;18.54;81.52;99900.22;4994899;28;20042;-78
2022/09/04 06:29:29;;;;;;;28.67;12.80;;;;;;;18.52;81.71;99897.75;5011683;28;20030;-82
2022/09/04 06:32:11;;;;;;;23.63;13.73;;;;;;;18.87;80.20;99896.69;5012550;28;20105;-76
2022/09/04 06:34:54;;;;;;;20.73;13.13;;;;;;;19.12;79.61;99893.44;5004056;28;20025;-77
2022/09/04 06:37:47;;;;;;;18.27;13.13;;;;;;;19.36;79.39;99891.31;5031516;28;20033;-75
2022/09/04 06:40:33;;;;;;;20.15;14.82;;;;;;;19.30;79.31;99884.34;5013536;28;20037;-74
2022/09/04 06:43:15;;;;;;;18.23;13.75;;;;;;;19.09;80.67;99894.22;5025277;28;20427;-77
2022/09/04 06:46:06;;;;;;;22.08;14.65;;;;;;;19.22;79.05;99889.09;5014051;28;20065;-77
2022/09/04 06:48:52;;;;;;;23.20;15.85;;;;;;;19.28;79.07;99890.41;5015039;28;20029;-76
2022/09/04 06:51:55;;;;;;;22.67;14.73;;;;;;;19.43;77.99;99884.94;5013282;28;20036;-78
2022/09/04 06:54:50;;;;;;;20.73;14.48;;;;;;;19.60;78.65;99875.00;5031405;28;20404;-76
2022/09/04 06:57:40;;;;;;;18.55;13.02;;;;;;;19.88;77.11;99882.22;5015124;28;20029;-76
2022/09/04 07:00:10;;;;;;;23.05;15.27;;;;;;;19.77;77.74;99860.19;5014280;28;20033;-75
2022/09/04 07:02:58;;;;;;;22.98;17.25;;;;;;;19.35;78.29;99879.16;5030689;28;20037;-79
2022/09/04 07:05:27;;;;;;;22.30;17.90;;;;;;;19.67;78.74;99877.13;5012378;28;20378;-82
2022/09/04 07:08:15;;;;;;;24.77;18.77;;;;;;;19.79;77.07;99885.34;5032555;28;20496;-82
2022/09/04 07:11:07;;;;;;;25.23;19.45;;;;;;;19.71;77.81;99870.28;5013929;28;20075;-82
2022/09/04 07:14:15;;;;;;;21.23;18.80;;;;;;;19.88;78.33;99885.03;5014942;28;20036;-82
2022/09/04 07:16:56;;;;;;;22.67;19.10;;;;;;;20.10;76.18;99888.97;5031904;28;20033;-83
2022/09/04 07:19:34;;;;;;;30.95;20.58;;;;;;;20.06;75.83;99876.75;5031995;28;20546;-83
2022/09/04 07:22:22;;;;;;;27.83;20.48;;;;;;;20.20;76.93;99871.19;5011257;28;20548;-83
2022/09/04 07:24:58;;;;;;;25.13;20.55;;;;;;;20.22;75.64;99873.66;4999659;28;20033;-82
2022/09/04 07:27:38;;;;;;;22.88;19.23;;;;;;;20.27;76.51;99859.13;5022147;28;20091;-83
2022/09/04 07:30:08;;;;;;;;;;;;;;;20.58;74.75;99873.97;5033003;28;20025;-82
2022/09/04 07:32:41;;;;;;;;;;;;;;;20.53;73.97;99879.19;5032586;28;19920;-82
2022/09/04 07:35:30;;;;;;;27.45;23.33;;;;;;;20.76;74.36;99884.66;4995037;28;19952;-82
2022/09/04 07:38:37;;;;;;;24.45;21.38;;;;;;;20.95;73.91;99874.25;4996549;28;20401;-84
2022/09/04 07:41:39;;;;;;;38.25;30.85;;;;;;;20.96;72.33;99888.06;5011563;28;20207;-83
2022/09/04 07:44:29;;;;;;;35.25;26.02;;;;;;;21.19;72.83;99887.00;5030774;28;20504;-83
2022/09/04 07:47:12;;;;;;;42.95;26.02;;;;;;;21.38;72.55;99880.19;5010471;28;20052;-82
2022/09/04 07:50:01;;;;;;;26.95;21.80;;;;;;;21.17;71.53;99890.22;5013183;28;20034;-82
2022/09/04 07:52:27;;;;;;;62.72;42.92;;;;;;;20.99;71.12;99886.44;5013464;28;20033;-82
2022/09/04 07:55:12;;;;;;;49.55;36.88;;;;;;;21.02;71.69;99891.34;5011135;28;20179;-82
2022/09/04 07:58:02;;;;;;;39.55;27.90;;;;;;;20.76;72.74;99898.88;5010384;28;20462;-82
2022/09/04 08:00:38;;;;;;;36.67;24.77;;;;;;;20.68;73.00;99905.69;5011719;28;20025;-82
2022/09/04 08:03:24;;;;;;;29.92;24.60;;;;;;;20.80;72.56;99901.72;4996216;28;20076;-82
2022/09/04 08:06:04;;;;;;;29.50;24.48;;;;;;;21.16;72.01;99899.97;4999172;28;20065;-83
2022/09/04 08:09:07;;;;;;;25.45;22.38;;;;;;;21.15;69.81;99881.28;5013388;28;20048;-85
2022/09/04 08:11:44;;;;;;;28.75;22.48;;;;;;;21.38;69.43;99883.03;5031082;28;20385;-82
2022/09/04 08:14:36;;;;;;;24.67;21.23;;;;;;;21.49;69.11;99873.72;5027043;28;20492;-82
2022/09/04 08:17:24;;;;;;;28.08;21.92;;;;;;;22.05;69.37;99893.41;5004146;28;20069;-82
2022/09/04 08:20:02;;;;;;;27.58;22.30;;;;;;;22.27;67.10;99882.88;5030387;28;20021;-83
2022/09/04 08:22:56;;;;;;;32.03;22.33;;;;;;;22.12;67.53;99884.91;4998784;28;20115;-83
2022/09/04 08:25:45;;;;;;;27.33;21.77;;;;;;;22.10;66.20;99890.19;5018639;28;20037;-83
2022/09/04 08:28:20;;;;;;;31.33;21.00;;;;;;;22.12;65.99;99899.13;5014512;28;20052;-82
2022/09/04 08:31:28;;;;;;;29.73;23.42;;;;;;;22.27;67.07;99888.59;5021490;28;20485;-83
2022/09/04 08:34:03;;;;;;;39.42;30.15;;;;;;;22.50;66.41;99893.91;4994566;28;20546;-83
2022/09/04 08:36:34;;;;;;;53.22;27.35;;;;;;;22.44;65.93;99892.66;5013228;28;20029;-77
2022/09/04 08:39:17;;;;;;;36.58;27.85;;;;;;;22.36;65.66;99886.13;5019410;28;20034;-75
2022/09/04 08:41:48;;;;;;;42.22;26.00;;;;;;;22.28;65.97;99887.38;5010174;28;20069;-80
2022/09/04 08:45:04;;;;;;;33.95;27.20;;;;;;;22.00;66.27;99886.91;5025194;28;20489;-80
2022/09/04 08:47:39;;;;;;;42.03;26.88;;;;;;;21.81;66.77;99875.88;5034035;28;20037;-81
2022/09/04 08:50:55;;;;;;;34.42;25.85;;;;;;;21.89;67.18;99874.69;5016146;28;20038;-79
2022/09/04 08:53:36;;;;;;;27.50;23.27;;;;;;;21.93;67.03;99878.34;4990346;28;20127;-77
2022/09/04 08:56:17;;;;;;;28.02;23.15;;;;;;;21.99;66.16;99873.91;5032992;28;20033;-79
2022/09/04 08:59:03;;;;;;;35.50;25.50;;;;;;;21.92;66.26;99878.75;5001623;28;20035;-77
2022/09/04 09:02:03;;;;;;;31.98;25.42;;;;;;;21.92;66.17;99885.25;5020460;28;20044;-77
2022/09/04 09:05:00;;;;;;;33.42;24.55;;;;;;;21.95;65.24;99884.44;5029880;28;20119;-75
2022/09/04 09:07:57;;;;;;;27.23;24.23;;;;;;;21.83;66.11;99879.97;5027130;28;20073;-73
2022/09/04 09:10:52;;;;;;;29.83;22.90;;;;;;;21.96;65.58;99886.09;5016855;28;20043;-73
2022/09/04 09:13:38;;;;;;;26.23;22.73;;;;;;;21.73;65.31;99886.44;5011885;28;20095;-72
2022/09/04 09:16:26;;;;;;;25.45;22.75;;;;;;;21.86;65.54;99878.34;5012690;28;20496;-72
2022/09/04 09:19:06;;;;;;;25.30;22.23;;;;;;;22.30;65.10;99882.06;5030598;28;20040;-74
2022/09/04 09:21:48;;;;;;;34.40;23.80;;;;;;;22.65;63.82;99880.47;5015025;28;20118;-72
2022/09/04 09:24:47;;;;;;;28.45;22.42;;;;;;;23.21;63.59;99888.50;5032082;28;20083;-71
2022/09/04 09:27:35;;;;;;;23.70;20.52;;;;;;;23.49;61.67;99888.84;5009964;28;20523;-72
2022/09/04 09:30:16;;;;;;;27.40;23.35;;;;;;;23.48;63.64;99896.63;5027948;28;20079;-73
2022/09/04 09:32:45;;;;;;;27.85;21.42;;;;;;;23.71;61.91;99895.28;5027345;28;20029;-73
2022/09/04 09:35:36;;;;;;;25.73;22.38;;;;;;;23.74;61.04;99902.22;5016180;28;20033;-72
2022/09/04 09:38:26;;;;;;;27.10;23.48;;;;;;;23.39;61.49;99896.25;5025752;28;20041;-74
2022/09/04 09:40:54;;;;;;;;;;;;;;;23.55;60.71;99884.38;5033469;28;20025;-72
2022/09/04 09:43:25;;;;;;;24.17;21.58;;;;;;;23.66;61.43;99882.28;5004548;28;19952;-73
2022/09/04 09:46:08;;;;;;;28.00;21.52;;;;;;;23.68;60.60;99888.38;5032345;28;20037;-73
2022/09/04 09:49:07;;;;;;;26.40;21.90;;;;;;;23.40;60.89;99895.81;5032076;28;20029;-71
2022/09/04 09:51:48;;;;;;;235.93;35.85;;;;;;;23.42;61.21;99892.56;5030898;28;20044;-72
2022/09/04 09:54:44;;;;;;;23.00;20.63;;;;;;;23.31;59.93;99886.91;5014443;28;20030;-76
2022/09/04 09:57:25;;;;;;;24.45;21.27;;;;;;;23.57;59.73;99887.59;5026654;28;20044;-75
2022/09/04 10:00:20;;;;;;;27.20;23.48;;;;;;;23.84;59.03;99879.31;5008604;28;20033;-71
2022/09/04 10:03:23;;;;;;;28.77;21.40;;;;;;;24.07;56.51;99875.13;5019960;28;20555;-72
2022/09/04 10:05:58;;;;;;;24.42;21.83;;;;;;;24.31;56.78;99878.19;5012688;28;20129;-73
2022/09/04 10:08:48;;;;;;;24.42;20.98;;;;;;;24.57;56.25;99873.13;5021546;28;20025;-71
2022/09/04 10:11:13;;;;;;;;;;;;;;;24.50;56.19;99870.31;5013035;28;20084;-71
2022/09/04 10:13:48;;;;;;;30.13;21.73;;;;;;;24.62;57.02;99864.06;5014770;28;20440;-71
2022/09/04 10:16:34;;;;;;;25.80;22.05;;;;;;;24.56;54.61;99859.22;5026708;28;20019;-71
2022/09/04 10:19:27;;;;;;;22.95;20.17;;;;;;;24.67;55.53;99854.22;5023664;28;20029;-71
2022/09/04 10:22:23;;;;;;;32.20;21.20;;;;;;;24.69;55.46;99860.34;5014617;28;20025;-71
2022/09/04 10:24:56;;;;;;;29.27;20.83;;;;;;;24.53;55.17;99852.31;5032458;28;20018;-71
2022/09/04 10:27:29;;;;;;;33.08;20.98;;;;;;;24.79;54.02;99852.91;5032222;28;20026;-71
2022/09/04 10:30:47;;;;;;;25.67;19.48;;;;;;;24.78;53.65;99846.38;5032253;28;20033;-71
2022/09/04 10:33:35;;;;;;;21.15;18.90;;;;;;;25.10;53.57;99838.69;4957560;28;20511;-72
2022/09/04 10:36:13;;;;;;;29.00;20.42;;;;;;;25.45;51.74;99839.50;5025279;28;20113;-71
2022/09/04 10:42:01;;;;;;;23.37;18.13;;;;;;;25.64;54.50;99840.91;5012241;28;20085;-71
2022/09/04 10:44:43;;;;;;;20.27;18.27;;;;;;;24.59;54.66;99835.50;5011848;28;20504;-71
2022/09/04 10:47:27;;;;;;;19.70;17.70;;;;;;;25.15;53.89;99832.47;5011930;28;20141;-71
2022/09/04 10:50:13;;;;;;;20.67;18.58;;;;;;;25.30;53.20;99823.75;5023601;28;20404;-71
2022/09/04 10:53:14;;;;;;;21.95;18.88;;;;;;;25.10;52.21;99824.38;5013859;28;20488;-71
2022/09/04 10:56:04;;;;;;;19.65;17.30;;;;;;;25.47;52.07;99819.81;5017789;28;20515;-71
2022/09/04 10:58:46;;;;;;;;;;;;;;;25.59;51.48;99815.63;5031347;28;20025;-72
2022/09/04 11:01:33;;;;;;;21.77;18.25;;;;;;;25.74;52.18;99813.34;5031493;28;19909;-72
2022/09/04 11:04:26;;;;;;;20.83;18.05;;;;;;;25.71;51.78;99801.97;5013052;28;20041;-71
2022/09/04 11:07:01;;;;;;;28.13;19.05;;;;;;;25.89;51.17;99802.47;5031351;28;20087;-71
2022/09/04 11:10:05;;;;;;;23.00;20.20;;;;;;;25.56;50.11;99787.03;5031578;28;20025;-71
2022/09/04 11:13:08;;;;;;;20.85;18.40;;;;;;;25.76;51.16;99795.75;5030902;28;20048;-71
2022/09/04 11:15:39;;;;;;;24.77;19.52;;;;;;;25.72;50.92;99789.25;5001465;28;20037;-71
2022/09/04 11:18:39;;;;;;;18.42;16.52;;;;;;;26.07;51.59;99787.88;5030966;28;20488;-71
2022/09/04 11:21:29;;;;;;;18.98;17.08;;;;;;;26.01;49.84;99785.94;5031401;28;20108;-71
2022/09/04 11:24:32;;;;;;;19.10;17.15;;;;;;;26.01;49.62;99795.34;5023115;28;20053;-72
2022/09/04 11:27:19;;;;;;;17.30;15.50;;;;;;;26.17;48.34;99799.59;4993653;28;20026;-71
2022/09/04 11:30:22;;;;;;;20.13;17.15;;;;;;;26.19;47.72;99788.53;5020747;28;20412;-72
2022/09/04 11:33:03;;;;;;;21.20;13.25;;;;;;;25.10;48.72;99781.47;5025673;28;20029;-71
2022/09/04 11:35:47;;;;;;;16.73;14.15;;;;;;;25.57;50.59;99777.19;5013374;28;20025;-71
2022/09/04 11:38:42;;;;;;;16.20;14.48;;;;;;;26.06;49.81;99779.69;5013231;28;20029;-72
2022/09/04 11:41:27;;;;;;;16.38;14.68;;;;;;;26.41;48.40;99765.22;5013121;28;20507;-72
2022/09/04 11:44:02;;;;;;;18.45;16.70;;;;;;;26.62;48.35;99769.75;5024783;28;20077;-71
2022/09/04 11:47:11;;;;;;;20.85;16.95;;;;;;;26.55;47.76;99767.03;5029965;28;20037;-71
2022/09/04 11:50:13;;;;;;;18.15;16.23;;;;;;;26.43;48.62;99757.00;5009395;28;20022;-71
2022/09/04 11:52:45;;;;;;;16.55;14.88;;;;;;;26.24;48.08;99752.84;5006043;28;20041;-71
2022/09/04 11:55:27;;;;;;;22.77;17.73;;;;;;;26.43;49.23;99757.00;5014847;28;20025;-72
2022/09/04 11:58:10;;;;;;;16.08;14.48;;;;;;;26.56;47.29;99748.56;5031285;28;20025;-70
2022/09/04 12:01:05;;;;;;;18.35;15.10;;;;;;;26.61;47.13;99745.19;5033862;28;20013;-70
2022/09/04 12:03:54;;;;;;;15.18;13.57;;;;;;;26.46;48.80;99738.91;4984112;28;20044;-71
2022/09/04 12:07:14;;;;;;;17.45;15.40;;;;;;;26.90;47.33;99742.59;4997506;28;20121;-71
2022/09/04 12:10:01;;;;;;;15.40;13.90;;;;;;;26.77;46.77;99739.53;4935580;29;20060;-71
2022/09/04 12:12:45;;;;;;;15.82;14.15;;;;;;;27.00;47.10;99732.13;4935481;29;20187;-72
2022/09/04 12:15:39;;;;;;;15.20;13.63;;;;;;;26.91;46.60;99729.06;5003758;28;20044;-71
2022/09/04 12:18:14;;;;;;;14.60;13.20;;;;;;;27.11;46.43;99731.09;5034654;28;20033;-71
2022/09/04 12:21:06;;;;;;;15.55;12.80;;;;;;;27.01;46.25;99727.22;5015467;28;20373;-73
2022/09/04 12:23:59;;;;;;;20.52;14.13;;;;;;;27.08;46.27;99731.97;5016861;28;20032;-72
2022/09/04 12:27:00;;;;;;;14.73;13.02;;;;;;;26.70;47.12;99728.22;5033776;28;20025;-74
2022/09/04 12:29:49;;;;;;;18.88;14.40;;;;;;;26.52;48.10;99716.28;5032887;28;20510;-73
2022/09/04 12:32:26;;;;;;;18.55;14.07;;;;;;;26.75;47.21;99718.28;5016650;28;20087;-73
2022/09/04 12:35:07;;;;;;;15.63;14.02;;;;;;;26.94;46.77;99713.81;5015994;28;20055;-71
2022/09/04 12:38:01;;;;;;;15.75;14.20;;;;;;;27.18;47.19;99720.25;5019685;28;20026;-71
2022/09/04 12:40:31;;;;;;;17.02;13.15;;;;;;;27.25;45.90;99715.63;5034112;28;20013;-72
2022/09/04 12:43:23;;;;;;;14.98;12.27;;;;;;;27.23;45.07;99715.25;5033099;28;20045;-71
2022/09/04 12:46:02;;;;;;;13.18;11.98;;;;;;;27.33;45.10;99702.69;5034130;28;20048;-75
2022/09/04 12:48:47;;;;;;;15.32;13.57;;;;;;;27.72;44.72;99706.75;5016637;28;20469;-75
2022/09/04 12:51:24;;;;;;;14.43;12.65;;;;;;;27.74;45.64;99709.97;5016638;28;20124;-76
2022/09/04 12:53:52;;;;;;;12.38;11.15;;;;;;;27.65;44.17;99717.63;5034182;28;20059;-76